sensor_id;sensor_type;location;lat;lon;timestamp;temperature;humidity
20833;DHT22;56075;51.264;7.150;2023-07-20T00:00:00;16.20;99.90
20833;DHT22;56075;51.264;7.150;2023-07-20T00:02:31;16.40;99.90
20833;DHT22;56075;51.264;7.150;2023-07-20T00:05:03;16.40;99.90
20833;DHT22;56075;51.264;7.150;2023-07-20T00:07:34;16.50;99.90
20833;DHT22;56075;51.264;7.150;2023-07-20T00:10:05;16.30;99.90
20833;DHT22;56075;51.264;7.150;2023-07-20T00:12:37;16.40;99.90
20833;DHT22;56075;51.264;7.150;2023-07-20T00:15:08;16.40;99.90
20833;DHT22;56075;51.264;7.150;2023-07-20T00:17:39;16.40;99.90
20833;DHT22;56075;51.264;7.150;2023-07-20T00:20:11;17.90;99.90
20833;DHT22;56075;51.264;7.150;2023-07-20T00:22:42;16.30;99.90
20833;DHT22;56075;51.264;7.150;2023-07-20T00:25:13;16.90;99.90
20833;DHT22;56075;51.264;7.150;2023-07-20T00:27:45;16.20;99.90
20833;DHT22;56075;51.264;7.150;2023-07-20T00:30:16;17.60;99.90
20833;DHT22;56075;51.264;7.150;2023-07-20T00:32:48;16.30;99.90
20833;DHT22;56075;51.264;7.150;2023-07-20T00:35:20;17.00;99.90
20833;DHT22;56075;51.264;7.150;2023-07-20T00:37:51;16.20;99.90
20833;DHT22;56075;51.264;7.150;2023-07-20T00:40:22;16.60;99.90
20833;DHT22;56075;51.264;7.150;2023-07-20T00:42:54;16.10;99.90
20833;DHT22;56075;51.264;7.150;2023-07-20T00:45:29;16.00;99.90
20833;DHT22;56075;51.264;7.150;2023-07-20T00:48:01;16.10;99.90
20833;DHT22;56075;51.264;7.150;2023-07-20T00:50:34;16.30;99.90
20833;DHT22;56075;51.264;7.150;2023-07-20T00:53:05;17.60;99.90
20833;DHT22;56075;51.264;7.150;2023-07-20T00:55:37;16.10;99.90
20833;DHT22;56075;51.264;7.150;2023-07-20T00:58:08;16.00;99.90
20833;DHT22;56075;51.264;7.150;2023-07-20T01:00:39;16.50;99.90
20833;DHT22;56075;51.264;7.150;2023-07-20T01:03:11;16.60;99.90
20833;DHT22;56075;51.264;7.150;2023-07-20T01:05:57;16.60;99.90
20833;DHT22;56075;51.264;7.150;2023-07-20T01:08:40;16.60;99.90
20833;DHT22;56075;51.264;7.150;2023-07-20T01:11:27;16.00;99.90
20833;DHT22;56075;51.264;7.150;2023-07-20T01:14:00;15.90;99.90
20833;DHT22;56075;51.264;7.150;2023-07-20T01:16:33;16.30;99.90
20833;DHT22;56075;51.264;7.150;2023-07-20T01:19:04;16.90;99.90
20833;DHT22;56075;51.264;7.150;2023-07-20T01:21:59;16.20;99.90
20833;DHT22;56075;51.264;7.150;2023-07-20T01:28:18;15.80;99.90
20833;DHT22;56075;51.264;7.150;2023-07-20T01:33:31;16.10;99.90
20833;DHT22;56075;51.264;7.150;2023-07-20T01:36:04;17.00;99.90
20833;DHT22;56075;51.264;7.150;2023-07-20T01:38:37;15.90;99.90
20833;DHT22;56075;51.264;7.150;2023-07-20T01:41:08;16.10;99.90
20833;DHT22;56075;51.264;7.150;2023-07-20T01:43:40;16.60;99.90
20833;DHT22;56075;51.264;7.150;2023-07-20T01:46:11;16.50;99.90
20833;DHT22;56075;51.264;7.150;2023-07-20T01:48:42;17.00;99.90
20833;DHT22;56075;51.264;7.150;2023-07-20T01:51:14;17.20;99.90
20833;DHT22;56075;51.264;7.150;2023-07-20T01:53:45;15.90;99.90
20833;DHT22;56075;51.264;7.150;2023-07-20T01:56:19;15.90;99.90
20833;DHT22;56075;51.264;7.150;2023-07-20T01:58:50;16.90;99.90
20833;DHT22;56075;51.264;7.150;2023-07-20T02:01:21;16.70;99.90
20833;DHT22;56075;51.264;7.150;2023-07-20T02:03:55;15.70;99.90
20833;DHT22;56075;51.264;7.150;2023-07-20T02:06:26;16.40;99.90
20833;DHT22;56075;51.264;7.150;2023-07-20T02:08:58;15.90;99.90
20833;DHT22;56075;51.264;7.150;2023-07-20T02:11:29;17.40;99.90
20833;DHT22;56075;51.264;7.150;2023-07-20T02:14:01;17.10;99.90
20833;DHT22;56075;51.264;7.150;2023-07-20T02:16:32;14.80;99.90
20833;DHT22;56075;51.264;7.150;2023-07-20T02:19:03;15.90;99.90
20833;DHT22;56075;51.264;7.150;2023-07-20T02:21:35;17.60;99.90
20833;DHT22;56075;51.264;7.150;2023-07-20T02:24:06;15.80;99.90
20833;DHT22;56075;51.264;7.150;2023-07-20T02:26:37;16.80;99.90
20833;DHT22;56075;51.264;7.150;2023-07-20T02:29:09;15.80;99.90
20833;DHT22;56075;51.264;7.150;2023-07-20T02:31:42;15.60;99.90
20833;DHT22;56075;51.264;7.150;2023-07-20T02:34:13;16.60;99.90
20833;DHT22;56075;51.264;7.150;2023-07-20T02:36:44;15.80;99.90
20833;DHT22;56075;51.264;7.150;2023-07-20T02:39:17;17.50;99.90
20833;DHT22;56075;51.264;7.150;2023-07-20T02:41:48;15.80;99.90
20833;DHT22;56075;51.264;7.150;2023-07-20T02:44:19;17.30;99.90
20833;DHT22;56075;51.264;7.150;2023-07-20T02:46:50;15.60;99.90
20833;DHT22;56075;51.264;7.150;2023-07-20T02:49:21;15.80;99.90
20833;DHT22;56075;51.264;7.150;2023-07-20T02:51:53;15.70;99.90
20833;DHT22;56075;51.264;7.150;2023-07-20T02:54:24;16.50;99.90
20833;DHT22;56075;51.264;7.150;2023-07-20T02:56:55;15.40;99.90
20833;DHT22;56075;51.264;7.150;2023-07-20T02:59:26;16.40;99.90
20833;DHT22;56075;51.264;7.150;2023-07-20T03:01:57;15.70;99.90
20833;DHT22;56075;51.264;7.150;2023-07-20T03:04:29;15.60;99.90
20833;DHT22;56075;51.264;7.150;2023-07-20T03:07:00;15.60;99.90
20833;DHT22;56075;51.264;7.150;2023-07-20T03:09:31;15.70;99.90
20833;DHT22;56075;51.264;7.150;2023-07-20T03:12:03;15.60;99.90
20833;DHT22;56075;51.264;7.150;2023-07-20T03:14:35;15.70;99.90
20833;DHT22;56075;51.264;7.150;2023-07-20T03:17:06;16.20;99.90
20833;DHT22;56075;51.264;7.150;2023-07-20T03:19:39;16.90;99.90
20833;DHT22;56075;51.264;7.150;2023-07-20T03:22:10;16.80;99.90
20833;DHT22;56075;51.264;7.150;2023-07-20T03:24:41;15.80;99.90
20833;DHT22;56075;51.264;7.150;2023-07-20T03:27:13;17.20;99.90
20833;DHT22;56075;51.264;7.150;2023-07-20T03:29:44;17.50;99.90
20833;DHT22;56075;51.264;7.150;2023-07-20T03:32:16;15.70;99.90
20833;DHT22;56075;51.264;7.150;2023-07-20T03:34:47;16.60;99.90
20833;DHT22;56075;51.264;7.150;2023-07-20T03:37:19;15.80;99.90
20833;DHT22;56075;51.264;7.150;2023-07-20T03:39:50;15.80;99.90
20833;DHT22;56075;51.264;7.150;2023-07-20T03:42:22;16.60;99.90
20833;DHT22;56075;51.264;7.150;2023-07-20T03:44:53;16.40;99.90
20833;DHT22;56075;51.264;7.150;2023-07-20T03:47:26;17.40;99.90
20833;DHT22;56075;51.264;7.150;2023-07-20T03:49:57;17.70;99.90
20833;DHT22;56075;51.264;7.150;2023-07-20T03:52:28;16.00;99.90
20833;DHT22;56075;51.264;7.150;2023-07-20T03:54:59;16.40;99.90
20833;DHT22;56075;51.264;7.150;2023-07-20T03:57:30;17.00;99.90
20833;DHT22;56075;51.264;7.150;2023-07-20T04:00:03;16.10;99.90
20833;DHT22;56075;51.264;7.150;2023-07-20T04:02:43;16.20;99.90
20833;DHT22;56075;51.264;7.150;2023-07-20T04:05:15;15.90;99.90
20833;DHT22;56075;51.264;7.150;2023-07-20T04:07:46;16.10;99.90
20833;DHT22;56075;51.264;7.150;2023-07-20T04:10:18;16.20;99.90
20833;DHT22;56075;51.264;7.150;2023-07-20T04:12:50;16.20;99.90
20833;DHT22;56075;51.264;7.150;2023-07-20T04:15:21;15.80;99.90
20833;DHT22;56075;51.264;7.150;2023-07-20T04:17:52;16.30;99.90
20833;DHT22;56075;51.264;7.150;2023-07-20T04:20:24;17.20;99.90
20833;DHT22;56075;51.264;7.150;2023-07-20T04:22:55;16.10;99.90
20833;DHT22;56075;51.264;7.150;2023-07-20T04:25:27;16.30;99.90
20833;DHT22;56075;51.264;7.150;2023-07-20T04:27:58;16.90;99.90
20833;DHT22;56075;51.264;7.150;2023-07-20T04:30:29;14.70;99.90
20833;DHT22;56075;51.264;7.150;2023-07-20T04:33:03;16.20;99.90
20833;DHT22;56075;51.264;7.150;2023-07-20T04:35:50;17.10;99.90
20833;DHT22;56075;51.264;7.150;2023-07-20T04:38:24;16.30;99.90
20833;DHT22;56075;51.264;7.150;2023-07-20T04:41:03;17.10;99.90
20833;DHT22;56075;51.264;7.150;2023-07-20T04:43:41;16.90;99.90
20833;DHT22;56075;51.264;7.150;2023-07-20T04:46:32;17.20;99.90
20833;DHT22;56075;51.264;7.150;2023-07-20T04:49:06;16.30;99.90
20833;DHT22;56075;51.264;7.150;2023-07-20T04:51:42;16.20;99.90
20833;DHT22;56075;51.264;7.150;2023-07-20T04:54:14;16.30;99.90
20833;DHT22;56075;51.264;7.150;2023-07-20T04:56:46;16.10;99.90
20833;DHT22;56075;51.264;7.150;2023-07-20T04:59:18;16.40;99.90
20833;DHT22;56075;51.264;7.150;2023-07-20T05:01:49;16.20;99.90
20833;DHT22;56075;51.264;7.150;2023-07-20T05:04:22;16.30;99.90
20833;DHT22;56075;51.264;7.150;2023-07-20T05:06:53;16.30;99.90
20833;DHT22;56075;51.264;7.150;2023-07-20T05:09:24;16.40;99.90
20833;DHT22;56075;51.264;7.150;2023-07-20T05:11:56;17.20;99.90
20833;DHT22;56075;51.264;7.150;2023-07-20T05:14:27;16.40;99.90
20833;DHT22;56075;51.264;7.150;2023-07-20T05:16:59;16.40;99.90
20833;DHT22;56075;51.264;7.150;2023-07-20T05:19:30;16.40;99.90
20833;DHT22;56075;51.264;7.150;2023-07-20T05:22:02;17.50;99.90
20833;DHT22;56075;51.264;7.150;2023-07-20T05:24:33;16.30;99.90
20833;DHT22;56075;51.264;7.150;2023-07-20T05:27:04;16.30;99.90
20833;DHT22;56075;51.264;7.150;2023-07-20T05:29:36;16.50;99.90
20833;DHT22;56075;51.264;7.150;2023-07-20T05:32:07;17.20;99.90
20833;DHT22;56075;51.264;7.150;2023-07-20T05:34:38;16.50;99.90
20833;DHT22;56075;51.264;7.150;2023-07-20T05:37:09;16.40;99.90
20833;DHT22;56075;51.264;7.150;2023-07-20T05:39:40;17.90;99.90
20833;DHT22;56075;51.264;7.150;2023-07-20T05:42:12;16.30;99.90
20833;DHT22;56075;51.264;7.150;2023-07-20T05:44:43;16.60;99.90
20833;DHT22;56075;51.264;7.150;2023-07-20T05:47:14;17.90;99.90
20833;DHT22;56075;51.264;7.150;2023-07-20T05:49:45;16.50;99.90
20833;DHT22;56075;51.264;7.150;2023-07-20T05:52:16;16.70;99.90
20833;DHT22;56075;51.264;7.150;2023-07-20T05:54:47;16.80;99.90
20833;DHT22;56075;51.264;7.150;2023-07-20T05:57:18;16.90;99.90
20833;DHT22;56075;51.264;7.150;2023-07-20T05:59:50;17.00;99.90
20833;DHT22;56075;51.264;7.150;2023-07-20T06:02:21;16.90;99.90
20833;DHT22;56075;51.264;7.150;2023-07-20T06:04:52;16.80;99.90
20833;DHT22;56075;51.264;7.150;2023-07-20T06:07:23;17.80;99.90
20833;DHT22;56075;51.264;7.150;2023-07-20T06:09:54;18.80;99.90
20833;DHT22;56075;51.264;7.150;2023-07-20T06:12:25;17.00;99.90
20833;DHT22;56075;51.264;7.150;2023-07-20T06:14:56;17.00;99.90
20833;DHT22;56075;51.264;7.150;2023-07-20T06:17:28;17.10;99.90
20833;DHT22;56075;51.264;7.150;2023-07-20T06:19:59;18.10;99.90
20833;DHT22;56075;51.264;7.150;2023-07-20T06:22:30;18.00;99.90
20833;DHT22;56075;51.264;7.150;2023-07-20T06:25:01;18.70;99.90
20833;DHT22;56075;51.264;7.150;2023-07-20T06:27:32;17.40;99.90
20833;DHT22;56075;51.264;7.150;2023-07-20T06:30:04;18.10;99.90
20833;DHT22;56075;51.264;7.150;2023-07-20T06:32:35;17.50;99.90
20833;DHT22;56075;51.264;7.150;2023-07-20T06:35:07;18.20;99.90
20833;DHT22;56075;51.264;7.150;2023-07-20T06:37:39;17.70;99.90
20833;DHT22;56075;51.264;7.150;2023-07-20T06:40:10;17.70;99.90
20833;DHT22;56075;51.264;7.150;2023-07-20T06:42:42;17.90;99.90
20833;DHT22;56075;51.264;7.150;2023-07-20T06:45:13;18.30;99.90
20833;DHT22;56075;51.264;7.150;2023-07-20T06:47:44;18.00;99.90
20833;DHT22;56075;51.264;7.150;2023-07-20T06:50:15;18.10;99.90
20833;DHT22;56075;51.264;7.150;2023-07-20T06:52:47;18.30;99.90
20833;DHT22;56075;51.264;7.150;2023-07-20T06:55:18;18.40;99.90
20833;DHT22;56075;51.264;7.150;2023-07-20T06:57:50;18.30;99.90
20833;DHT22;56075;51.264;7.150;2023-07-20T07:00:22;18.90;99.90
20833;DHT22;56075;51.264;7.150;2023-07-20T07:02:53;18.20;99.90
20833;DHT22;56075;51.264;7.150;2023-07-20T07:05:24;18.20;99.90
20833;DHT22;56075;51.264;7.150;2023-07-20T07:07:55;17.90;99.90
20833;DHT22;56075;51.264;7.150;2023-07-20T07:10:26;17.80;99.90
20833;DHT22;56075;51.264;7.150;2023-07-20T07:12:57;17.80;99.90
20833;DHT22;56075;51.264;7.150;2023-07-20T07:15:28;17.90;99.90
20833;DHT22;56075;51.264;7.150;2023-07-20T07:18:00;18.60;99.90
20833;DHT22;56075;51.264;7.150;2023-07-20T07:20:31;19.00;99.90
20833;DHT22;56075;51.264;7.150;2023-07-20T07:23:02;17.80;99.90
20833;DHT22;56075;51.264;7.150;2023-07-20T07:25:33;17.60;99.90
20833;DHT22;56075;51.264;7.150;2023-07-20T07:28:04;17.90;99.90
20833;DHT22;56075;51.264;7.150;2023-07-20T07:30:36;18.90;99.90
20833;DHT22;56075;51.264;7.150;2023-07-20T07:33:07;18.40;99.90
20833;DHT22;56075;51.264;7.150;2023-07-20T07:35:38;18.20;99.90
20833;DHT22;56075;51.264;7.150;2023-07-20T07:38:09;18.70;99.90
20833;DHT22;56075;51.264;7.150;2023-07-20T07:40:41;19.50;99.90
20833;DHT22;56075;51.264;7.150;2023-07-20T07:43:13;19.40;99.90
20833;DHT22;56075;51.264;7.150;2023-07-20T07:45:44;18.70;99.90
20833;DHT22;56075;51.264;7.150;2023-07-20T07:48:16;18.20;99.90
20833;DHT22;56075;51.264;7.150;2023-07-20T07:50:48;18.20;99.90
20833;DHT22;56075;51.264;7.150;2023-07-20T07:53:20;19.60;99.90
20833;DHT22;56075;51.264;7.150;2023-07-20T07:55:52;18.40;99.90
20833;DHT22;56075;51.264;7.150;2023-07-20T07:58:24;18.60;99.90
20833;DHT22;56075;51.264;7.150;2023-07-20T08:00:55;18.50;99.90
20833;DHT22;56075;51.264;7.150;2023-07-20T08:03:26;18.60;99.90
20833;DHT22;56075;51.264;7.150;2023-07-20T08:05:57;18.50;99.90
20833;DHT22;56075;51.264;7.150;2023-07-20T08:08:32;18.50;99.90
20833;DHT22;56075;51.264;7.150;2023-07-20T08:11:04;18.60;99.90
20833;DHT22;56075;51.264;7.150;2023-07-20T08:13:35;18.60;99.90
20833;DHT22;56075;51.264;7.150;2023-07-20T08:16:06;18.80;99.90
20833;DHT22;56075;51.264;7.150;2023-07-20T08:18:37;19.40;99.90
20833;DHT22;56075;51.264;7.150;2023-07-20T08:21:08;18.80;99.90
20833;DHT22;56075;51.264;7.150;2023-07-20T08:23:40;19.80;99.90
20833;DHT22;56075;51.264;7.150;2023-07-20T08:26:11;19.70;99.90
20833;DHT22;56075;51.264;7.150;2023-07-20T08:28:44;19.20;99.90
20833;DHT22;56075;51.264;7.150;2023-07-20T08:31:16;19.40;99.90
20833;DHT22;56075;51.264;7.150;2023-07-20T08:33:47;20.00;99.90
20833;DHT22;56075;51.264;7.150;2023-07-20T08:36:19;20.00;99.90
20833;DHT22;56075;51.264;7.150;2023-07-20T08:38:50;20.00;99.90
20833;DHT22;56075;51.264;7.150;2023-07-20T08:41:21;19.90;99.90
20833;DHT22;56075;51.264;7.150;2023-07-20T08:43:54;19.90;99.90
20833;DHT22;56075;51.264;7.150;2023-07-20T08:46:28;20.00;99.90
20833;DHT22;56075;51.264;7.150;2023-07-20T08:49:00;20.10;99.90
20833;DHT22;56075;51.264;7.150;2023-07-20T08:51:33;20.00;99.90
20833;DHT22;56075;51.264;7.150;2023-07-20T08:54:08;20.00;99.90
20833;DHT22;56075;51.264;7.150;2023-07-20T08:56:41;19.90;99.90
20833;DHT22;56075;51.264;7.150;2023-07-20T08:59:16;20.00;99.90
20833;DHT22;56075;51.264;7.150;2023-07-20T09:01:48;19.90;99.90
20833;DHT22;56075;51.264;7.150;2023-07-20T09:04:19;20.00;99.90
20833;DHT22;56075;51.264;7.150;2023-07-20T09:06:50;20.30;99.90
20833;DHT22;56075;51.264;7.150;2023-07-20T09:09:21;19.80;99.90
20833;DHT22;56075;51.264;7.150;2023-07-20T09:11:53;19.90;99.90
20833;DHT22;56075;51.264;7.150;2023-07-20T09:14:24;20.00;99.90
20833;DHT22;56075;51.264;7.150;2023-07-20T09:16:56;20.10;99.90
20833;DHT22;56075;51.264;7.150;2023-07-20T09:19:27;20.90;99.90
20833;DHT22;56075;51.264;7.150;2023-07-20T09:21:58;20.50;99.90
20833;DHT22;56075;51.264;7.150;2023-07-20T09:24:29;20.80;99.90
20833;DHT22;56075;51.264;7.150;2023-07-20T09:27:02;21.20;99.90
20833;DHT22;56075;51.264;7.150;2023-07-20T09:29:53;20.50;99.90
20833;DHT22;56075;51.264;7.150;2023-07-20T09:32:24;20.80;99.90
20833;DHT22;56075;51.264;7.150;2023-07-20T09:34:55;21.70;99.90
20833;DHT22;56075;51.264;7.150;2023-07-20T09:37:26;20.90;99.90
20833;DHT22;56075;51.264;7.150;2023-07-20T09:39:58;20.80;99.90
20833;DHT22;56075;51.264;7.150;2023-07-20T09:42:30;22.00;99.90
20833;DHT22;56075;51.264;7.150;2023-07-20T09:45:01;20.80;99.90
20833;DHT22;56075;51.264;7.150;2023-07-20T09:47:36;23.20;99.90
20833;DHT22;56075;51.264;7.150;2023-07-20T09:50:08;22.10;99.90
20833;DHT22;56075;51.264;7.150;2023-07-20T09:52:41;21.40;99.90
20833;DHT22;56075;51.264;7.150;2023-07-20T09:55:15;22.00;99.90
20833;DHT22;56075;51.264;7.150;2023-07-20T09:57:47;21.60;99.90
20833;DHT22;56075;51.264;7.150;2023-07-20T10:00:18;22.20;99.90
20833;DHT22;56075;51.264;7.150;2023-07-20T10:02:51;21.50;99.90
20833;DHT22;56075;51.264;7.150;2023-07-20T10:05:24;21.50;99.90
20833;DHT22;56075;51.264;7.150;2023-07-20T10:07:58;21.50;99.90
20833;DHT22;56075;51.264;7.150;2023-07-20T10:10:31;22.00;99.90
20833;DHT22;56075;51.264;7.150;2023-07-20T10:13:03;21.20;99.90
20833;DHT22;56075;51.264;7.150;2023-07-20T10:15:42;22.40;99.90
20833;DHT22;56075;51.264;7.150;2023-07-20T10:18:31;21.20;99.90
20833;DHT22;56075;51.264;7.150;2023-07-20T10:21:06;21.20;99.90
20833;DHT22;56075;51.264;7.150;2023-07-20T10:23:39;21.30;99.90
20833;DHT22;56075;51.264;7.150;2023-07-20T10:26:10;21.40;99.90
20833;DHT22;56075;51.264;7.150;2023-07-20T10:28:42;21.30;99.90
20833;DHT22;56075;51.264;7.150;2023-07-20T10:31:14;21.60;99.90
20833;DHT22;56075;51.264;7.150;2023-07-20T10:33:46;21.60;99.90
20833;DHT22;56075;51.264;7.150;2023-07-20T10:36:25;22.60;99.90
20833;DHT22;56075;51.264;7.150;2023-07-20T10:38:57;22.00;99.90
20833;DHT22;56075;51.264;7.150;2023-07-20T10:41:37;22.00;99.90
20833;DHT22;56075;51.264;7.150;2023-07-20T10:44:10;22.00;99.90
20833;DHT22;56075;51.264;7.150;2023-07-20T10:46:43;22.20;99.90
20833;DHT22;56075;51.264;7.150;2023-07-20T10:49:17;22.10;99.90
20833;DHT22;56075;51.264;7.150;2023-07-20T10:51:58;22.30;99.90
20833;DHT22;56075;51.264;7.150;2023-07-20T10:57:30;22.20;99.90
20833;DHT22;56075;51.264;7.150;2023-07-20T11:00:12;21.90;99.90
20833;DHT22;56075;51.264;7.150;2023-07-20T11:02:48;22.00;99.90
20833;DHT22;56075;51.264;7.150;2023-07-20T11:05:40;22.10;99.90
20833;DHT22;56075;51.264;7.150;2023-07-20T11:08:12;22.30;99.90
20833;DHT22;56075;51.264;7.150;2023-07-20T11:10:43;23.20;99.90
20833;DHT22;56075;51.264;7.150;2023-07-20T11:13:22;22.30;99.90
20833;DHT22;56075;51.264;7.150;2023-07-20T11:18:28;23.60;99.90
20833;DHT22;56075;51.264;7.150;2023-07-20T11:21:00;22.60;99.90
20833;DHT22;56075;51.264;7.150;2023-07-20T11:23:31;23.70;99.90
20833;DHT22;56075;51.264;7.150;2023-07-20T11:26:03;23.70;99.90
20833;DHT22;56075;51.264;7.150;2023-07-20T11:28:34;23.40;99.90
20833;DHT22;56075;51.264;7.150;2023-07-20T11:31:06;23.30;99.90
20833;DHT22;56075;51.264;7.150;2023-07-20T11:33:38;23.80;99.50
20833;DHT22;56075;51.264;7.150;2023-07-20T11:36:09;24.00;98.80
20833;DHT22;56075;51.264;7.150;2023-07-20T11:38:43;24.10;98.30
20833;DHT22;56075;51.264;7.150;2023-07-20T11:41:14;24.10;97.90
20833;DHT22;56075;51.264;7.150;2023-07-20T11:43:46;24.10;97.80
20833;DHT22;56075;51.264;7.150;2023-07-20T11:46:18;24.10;97.60
20833;DHT22;56075;51.264;7.150;2023-07-20T11:48:49;24.20;97.30
20833;DHT22;56075;51.264;7.150;2023-07-20T11:51:27;24.40;96.90
20833;DHT22;56075;51.264;7.150;2023-07-20T11:54:01;24.20;96.60
20833;DHT22;56075;51.264;7.150;2023-07-20T11:56:33;24.10;96.50
20833;DHT22;56075;51.264;7.150;2023-07-20T11:59:04;25.40;96.90
20833;DHT22;56075;51.264;7.150;2023-07-20T12:01:37;24.40;96.30
20833;DHT22;56075;51.264;7.150;2023-07-20T12:04:08;25.80;96.20
20833;DHT22;56075;51.264;7.150;2023-07-20T12:06:39;25.10;95.00
20833;DHT22;56075;51.264;7.150;2023-07-20T12:09:14;26.20;94.80
20833;DHT22;56075;51.264;7.150;2023-07-20T12:11:49;25.90;94.20
20833;DHT22;56075;51.264;7.150;2023-07-20T12:14:20;25.90;94.10
20833;DHT22;56075;51.264;7.150;2023-07-20T12:16:56;24.90;94.00
20833;DHT22;56075;51.264;7.150;2023-07-20T12:19:27;25.20;93.70
20833;DHT22;56075;51.264;7.150;2023-07-20T12:21:58;25.50;93.10
20833;DHT22;56075;51.264;7.150;2023-07-20T12:24:32;25.90;92.70
20833;DHT22;56075;51.264;7.150;2023-07-20T12:27:04;25.50;92.90
20833;DHT22;56075;51.264;7.150;2023-07-20T12:29:35;25.40;92.30
20833;DHT22;56075;51.264;7.150;2023-07-20T12:32:07;25.20;92.20
20833;DHT22;56075;51.264;7.150;2023-07-20T12:34:38;25.30;91.90
20833;DHT22;56075;51.264;7.150;2023-07-20T12:37:10;25.30;91.50
20833;DHT22;56075;51.264;7.150;2023-07-20T12:39:41;25.20;91.10
20833;DHT22;56075;51.264;7.150;2023-07-20T12:42:15;25.10;91.00
20833;DHT22;56075;51.264;7.150;2023-07-20T12:44:48;25.60;91.00
20833;DHT22;56075;51.264;7.150;2023-07-20T12:47:20;25.60;90.70
20833;DHT22;56075;51.264;7.150;2023-07-20T12:49:51;25.80;90.60
20833;DHT22;56075;51.264;7.150;2023-07-20T12:52:22;25.20;90.40
20833;DHT22;56075;51.264;7.150;2023-07-20T12:54:53;24.40;90.20
20833;DHT22;56075;51.264;7.150;2023-07-20T12:57:24;24.50;90.20
20833;DHT22;56075;51.264;7.150;2023-07-20T12:59:55;24.10;90.10
20833;DHT22;56075;51.264;7.150;2023-07-20T13:02:27;24.70;90.30
20833;DHT22;56075;51.264;7.150;2023-07-20T13:04:58;24.20;90.20
20833;DHT22;56075;51.264;7.150;2023-07-20T13:07:32;25.20;90.00
20833;DHT22;56075;51.264;7.150;2023-07-20T13:10:04;25.10;87.70
20833;DHT22;56075;51.264;7.150;2023-07-20T13:12:36;25.60;86.00
20833;DHT22;56075;51.264;7.150;2023-07-20T13:15:09;26.30;85.10
20833;DHT22;56075;51.264;7.150;2023-07-20T13:17:40;26.70;83.80
20833;DHT22;56075;51.264;7.150;2023-07-20T13:20:11;27.20;82.10
20833;DHT22;56075;51.264;7.150;2023-07-20T13:22:42;27.20;82.00
20833;DHT22;56075;51.264;7.150;2023-07-20T13:25:13;27.00;81.70
20833;DHT22;56075;51.264;7.150;2023-07-20T13:27:45;26.90;81.70
20833;DHT22;56075;51.264;7.150;2023-07-20T13:30:16;26.90;81.50
20833;DHT22;56075;51.264;7.150;2023-07-20T13:32:47;27.70;82.00
20833;DHT22;56075;51.264;7.150;2023-07-20T13:35:18;26.30;80.80
20833;DHT22;56075;51.264;7.150;2023-07-20T13:37:50;26.60;81.60
20833;DHT22;56075;51.264;7.150;2023-07-20T13:40:22;27.00;81.90
20833;DHT22;56075;51.264;7.150;2023-07-20T13:42:54;26.00;81.30
20833;DHT22;56075;51.264;7.150;2023-07-20T13:45:25;26.80;82.00
20833;DHT22;56075;51.264;7.150;2023-07-20T13:47:56;25.50;81.70
20833;DHT22;56075;51.264;7.150;2023-07-20T13:50:27;25.30;82.10
20833;DHT22;56075;51.264;7.150;2023-07-20T13:52:59;25.30;82.40
20833;DHT22;56075;51.264;7.150;2023-07-20T13:55:33;24.90;82.70
20833;DHT22;56075;51.264;7.150;2023-07-20T13:58:07;26.10;84.00
20833;DHT22;56075;51.264;7.150;2023-07-20T14:00:40;25.70;84.90
20833;DHT22;56075;51.264;7.150;2023-07-20T14:03:12;24.20;84.40
20833;DHT22;56075;51.264;7.150;2023-07-20T14:05:43;24.50;85.30
20833;DHT22;56075;51.264;7.150;2023-07-20T14:08:14;23.80;85.30
20833;DHT22;56075;51.264;7.150;2023-07-20T14:10:45;23.70;85.80
20833;DHT22;56075;51.264;7.150;2023-07-20T14:13:16;23.70;86.10
20833;DHT22;56075;51.264;7.150;2023-07-20T14:15:48;23.90;86.80
20833;DHT22;56075;51.264;7.150;2023-07-20T14:18:21;24.00;86.50
20833;DHT22;56075;51.264;7.150;2023-07-20T14:20:52;23.90;86.30
20833;DHT22;56075;51.264;7.150;2023-07-20T14:23:23;23.90;85.90
20833;DHT22;56075;51.264;7.150;2023-07-20T14:25:54;24.20;85.60
20833;DHT22;56075;51.264;7.150;2023-07-20T14:28:25;24.20;85.20
20833;DHT22;56075;51.264;7.150;2023-07-20T14:30:56;24.60;85.30
20833;DHT22;56075;51.264;7.150;2023-07-20T14:33:28;24.10;85.20
20833;DHT22;56075;51.264;7.150;2023-07-20T14:35:59;25.20;86.00
20833;DHT22;56075;51.264;7.150;2023-07-20T14:38:34;23.90;85.50
20833;DHT22;56075;51.264;7.150;2023-07-20T14:41:05;23.80;85.60
20833;DHT22;56075;51.264;7.150;2023-07-20T14:43:37;25.10;86.50
20833;DHT22;56075;51.264;7.150;2023-07-20T14:46:09;23.70;85.70
20833;DHT22;56075;51.264;7.150;2023-07-20T14:48:41;24.30;86.10
20833;DHT22;56075;51.264;7.150;2023-07-20T14:51:12;24.00;85.80
20833;DHT22;56075;51.264;7.150;2023-07-20T14:53:43;24.10;85.50
20833;DHT22;56075;51.264;7.150;2023-07-20T14:56:14;24.00;85.10
20833;DHT22;56075;51.264;7.150;2023-07-20T14:58:45;25.00;85.50
20833;DHT22;56075;51.264;7.150;2023-07-20T15:01:17;24.00;84.50
20833;DHT22;56075;51.264;7.150;2023-07-20T15:03:48;24.30;84.40
20833;DHT22;56075;51.264;7.150;2023-07-20T15:06:21;25.60;84.50
20833;DHT22;56075;51.264;7.150;2023-07-20T15:08:53;25.00;82.50
20833;DHT22;56075;51.264;7.150;2023-07-20T15:11:24;25.40;81.70
20833;DHT22;56075;51.264;7.150;2023-07-20T15:13:55;25.70;80.50
20833;DHT22;56075;51.264;7.150;2023-07-20T15:16:27;26.20;79.90
20833;DHT22;56075;51.264;7.150;2023-07-20T15:18:58;26.50;78.90
20833;DHT22;56075;51.264;7.150;2023-07-20T15:21:29;26.70;78.10
20833;DHT22;56075;51.264;7.150;2023-07-20T15:24:02;27.20;77.30
20833;DHT22;56075;51.264;7.150;2023-07-20T15:26:33;27.90;75.20
20833;DHT22;56075;51.264;7.150;2023-07-20T15:29:05;28.50;73.60
20833;DHT22;56075;51.264;7.150;2023-07-20T15:31:37;29.00;71.70
20833;DHT22;56075;51.264;7.150;2023-07-20T15:34:08;29.40;70.20
20833;DHT22;56075;51.264;7.150;2023-07-20T15:36:39;29.70;69.30
20833;DHT22;56075;51.264;7.150;2023-07-20T15:39:11;30.20;68.50
20833;DHT22;56075;51.264;7.150;2023-07-20T15:41:42;30.50;66.90
20833;DHT22;56075;51.264;7.150;2023-07-20T15:44:13;30.10;66.80
20833;DHT22;56075;51.264;7.150;2023-07-20T15:46:46;29.60;67.60
20833;DHT22;56075;51.264;7.150;2023-07-20T15:49:18;29.20;68.40
20833;DHT22;56075;51.264;7.150;2023-07-20T15:51:49;28.70;68.70
20833;DHT22;56075;51.264;7.150;2023-07-20T15:54:20;28.60;68.90
20833;DHT22;56075;51.264;7.150;2023-07-20T15:56:52;28.50;69.00
20833;DHT22;56075;51.264;7.150;2023-07-20T15:59:24;28.50;69.20
20833;DHT22;56075;51.264;7.150;2023-07-20T16:01:55;28.10;69.10
20833;DHT22;56075;51.264;7.150;2023-07-20T16:04:26;27.80;69.70
20833;DHT22;56075;51.264;7.150;2023-07-20T16:06:57;27.60;69.60
20833;DHT22;56075;51.264;7.150;2023-07-20T16:09:29;28.00;69.20
20833;DHT22;56075;51.264;7.150;2023-07-20T16:12:00;28.60;67.80